Time;durP1;ratioP1;P1;durP2;ratioP2;P2;SDS_P1;SDS_P2;PMS_P1;PMS_P2;Temp;Humidity;BMP_temperature;BMP_pressure;BME280_temperature;BME280_humidity;BME280_pressure;Samples;Min_cycle;Max_cycle;Signal;HPM_P1;HPM_P2
2022/07/18 00:01:20;;;;;;;5.60;4.97;;;16.80;62.50;;;;;;5070981;28;20795;-65
2022/07/18 00:03:47;;;;;;;8.30;5.70;;;16.80;62.80;;;;;;5065393;28;21051;-65
2022/07/18 00:06:15;;;;;;;7.80;5.40;;;16.90;63.20;;;;;;5055440;28;20459;-64
2022/07/18 00:08:43;;;;;;;7.30;5.57;;;16.80;63.40;;;;;;5059197;28;20436;-64
2022/07/18 00:11:11;;;;;;;8.87;5.43;;;16.60;63.60;;;;;;5075156;28;20459;-65
2022/07/18 00:13:42;;;;;;;8.93;5.70;;;16.60;63.80;;;;;;5073008;28;20474;-65
2022/07/18 00:16:10;;;;;;;7.57;5.20;;;16.60;64.10;;;;;;5075062;28;20450;-64
2022/07/18 00:18:43;;;;;;;6.43;4.70;;;16.60;64.20;;;;;;5069630;28;20516;-64
2022/07/18 00:21:12;;;;;;;6.73;5.47;;;16.70;64.50;;;;;;5054976;28;20502;-65
2022/07/18 00:23:43;;;;;;;6.67;5.30;;;16.70;64.60;;;;;;5059017;28;20513;-64
2022/07/18 00:26:10;;;;;;;10.23;4.70;;;16.60;64.20;;;;;;5074658;28;20470;-65
2022/07/18 00:28:37;;;;;;;7.93;5.57;;;16.50;65.00;;;;;;5074278;28;20440;-65
2022/07/18 00:31:09;;;;;;;4.70;4.17;;;16.40;65.10;;;;;;5074839;28;20537;-64
2022/07/18 00:33:37;;;;;;;8.87;5.10;;;16.40;65.50;;;;;;5055043;28;20472;-64
2022/07/18 00:36:04;;;;;;;5.00;4.50;;;16.30;65.50;;;;;;5054510;28;20459;-65
2022/07/18 00:38:32;;;;;;;5.83;5.23;;;16.30;66.10;;;;;;5072256;28;20444;-66
2022/07/18 00:41:00;;;;;;;5.40;4.90;;;16.30;66.00;;;;;;5074663;28;20838;-65
2022/07/18 00:43:27;;;;;;;4.77;4.27;;;16.30;66.10;;;;;;5057483;28;20437;-64
2022/07/18 00:46:00;;;;;;;7.77;5.03;;;16.40;66.30;;;;;;5054437;28;20440;-64
2022/07/18 00:48:27;;;;;;;10.00;4.53;;;16.30;67.20;;;;;;5070497;28;20490;-65
2022/07/18 00:50:55;;;;;;;8.57;5.07;;;16.30;66.80;;;;;;5074336;28;20442;-65
2022/07/18 00:53:23;;;;;;;7.27;5.37;;;16.30;66.60;;;;;;5057699;28;20864;-65
2022/07/18 00:55:55;;;;;;;5.20;4.70;;;16.30;66.80;;;;;;5054290;28;20533;-64
2022/07/18 00:58:25;;;;;;;7.40;5.40;;;16.30;66.70;;;;;;5069632;28;20452;-65
2022/07/18 01:03:39;;;;;;;5.07;4.30;;;16.20;67.20;;;;;;5056351;28;20476;-64
2022/07/18 01:06:07;;;;;;;8.03;4.53;;;16.20;67.10;;;;;;5054140;28;20463;-64
2022/07/18 01:08:39;;;;;;;5.10;4.13;;;16.20;66.90;;;;;;5070043;28;20542;-64
2022/07/18 01:11:07;;;;;;;6.97;5.10;;;16.10;67.30;;;;;;5073985;28;20945;-65
2022/07/18 01:13:37;;;;;;;6.20;4.40;;;16.10;67.60;;;;;;5057926;28;20481;-65
2022/07/18 01:16:05;;;;;;;6.90;4.70;;;16.10;68.00;;;;;;5052982;28;21047;-64
2022/07/18 01:18:37;;;;;;;6.07;5.47;;;16.10;68.80;;;;;;5068486;28;20448;-65
2022/07/18 01:21:06;;;;;;;4.77;4.23;;;16.00;68.90;;;;;;5073741;28;20451;-66
2022/07/18 01:23:36;;;;;;;4.90;4.40;;;15.90;69.10;;;;;;5071847;28;20858;-65
2022/07/18 01:26:04;;;;;;;5.90;4.77;;;15.80;69.20;;;;;;5073579;28;20455;-65
2022/07/18 01:28:32;;;;;;;12.37;4.80;;;15.80;69.80;;;;;;5059511;28;20441;-65
2022/07/18 01:30:59;;;;;;;5.33;4.30;;;15.70;71.10;;;;;;5054041;28;20839;-65
2022/07/18 01:33:26;;;;;;;4.53;3.90;;;15.60;71.10;;;;;;5065869;28;20482;-65
2022/07/18 01:35:54;;;;;;;5.07;4.20;;;15.60;71.60;;;;;;5073582;28;20950;-65
2022/07/18 01:38:22;;;;;;;5.37;4.40;;;15.60;71.50;;;;;;5061777;28;20806;-64
2022/07/18 01:40:55;;;;;;;5.37;4.30;;;15.70;71.60;;;;;;5053596;28;20856;-64
2022/07/18 01:43:22;;;;;;;5.53;5.00;;;15.70;71.60;;;;;;5064635;28;20431;-65
2022/07/18 01:45:59;;;;;;;8.73;4.50;;;15.80;71.80;;;;;;5073122;28;20950;-65
2022/07/18 01:48:26;;;;;;;6.77;4.90;;;15.80;71.50;;;;;;5061430;28;20441;-65
2022/07/18 01:50:54;;;;;;;6.97;5.57;;;15.80;71.50;;;;;;5053199;28;20440;-65
2022/07/18 01:53:24;;;;;;;8.20;4.47;;;15.80;71.50;;;;;;5064089;28;20881;-65
2022/07/18 01:55:53;;;;;;;7.07;5.47;;;15.80;71.00;;;;;;5071236;28;20443;-65
2022/07/18 01:58:21;;;;;;;5.70;4.87;;;15.60;70.80;;;;;;5062068;28;20441;-65
2022/07/18 02:00:50;;;;;;;5.60;4.90;;;15.60;71.50;;;;;;5053064;28;20440;-65
2022/07/18 02:03:19;;;;;;;5.27;4.77;;;15.50;71.60;;;;;;5062472;28;20986;-65
2022/07/18 02:05:47;;;;;;;5.83;5.30;;;15.50;71.80;;;;;;5072908;28;20848;-64
2022/07/18 02:08:14;;;;;;;6.40;5.27;;;15.40;72.50;;;;;;5063207;28;20441;-65
2022/07/18 02:10:43;;;;;;;8.30;5.47;;;15.40;73.40;;;;;;5053082;28;20492;-65
2022/07/18 02:13:10;;;;;;;5.40;4.90;;;15.40;73.40;;;;;;5061458;28;20537;-64
2022/07/18 02:15:38;;;;;;;6.33;5.37;;;15.30;73.20;;;;;;5072751;28;20444;-65
2022/07/18 02:18:05;;;;;;;6.00;5.30;;;15.30;73.50;;;;;;5064398;28;20437;-65
2022/07/18 02:20:32;;;;;;;6.80;5.20;;;15.20;73.50;;;;;;5052844;28;20445;-66
2022/07/18 02:23:04;;;;;;;6.70;5.20;;;15.20;74.20;;;;;;5059333;28;20788;-65
2022/07/18 02:25:31;;;;;;;6.47;4.97;;;15.10;74.50;;;;;;5072920;28;20454;-65
2022/07/18 02:28:00;;;;;;;6.50;5.13;;;15.00;74.50;;;;;;5068893;28;20477;-65
2022/07/18 02:30:27;;;;;;;7.10;4.73;;;15.10;74.50;;;;;;5062797;28;20436;-65
2022/07/18 02:32:55;;;;;;;5.87;4.57;;;15.10;74.60;;;;;;5072671;28;20480;-65
2022/07/18 02:35:22;;;;;;;6.47;5.60;;;15.10;74.20;;;;;;5071657;28;20440;-69
2022/07/18 02:37:52;;;;;;;5.97;5.17;;;15.10;74.80;;;;;;5072510;28;20443;-65
2022/07/18 02:40:21;;;;;;;7.33;4.50;;;15.10;74.70;;;;;;5066562;28;20837;-65
2022/07/18 02:42:48;;;;;;;6.87;6.03;;;15.20;74.90;;;;;;5052553;28;20449;-66
2022/07/18 02:45:17;;;;;;;6.33;4.70;;;15.20;75.00;;;;;;5057530;28;20436;-65
2022/07/18 02:47:44;;;;;;;7.60;4.90;;;15.10;73.80;;;;;;5072417;28;20436;-65
2022/07/18 02:50:12;;;;;;;9.13;5.63;;;15.10;73.70;;;;;;5066614;28;20447;-65
2022/07/18 02:52:41;;;;;;;6.73;5.07;;;14.90;73.50;;;;;;5051962;28;20437;-65
2022/07/18 02:55:15;;;;;;;6.03;5.43;;;14.90;74.10;;;;;;5056172;28;20424;-65
2022/07/18 02:57:42;;;;;;;5.83;5.10;;;14.80;74.60;;;;;;5072361;28;20493;-65
2022/07/18 03:00:13;;;;;;;6.13;5.07;;;14.80;75.10;;;;;;5070279;28;20501;-65
2022/07/18 03:02:43;;;;;;;5.40;4.13;;;14.80;75.80;;;;;;5072176;28;20494;-65
2022/07/18 03:05:12;;;;;;;6.60;4.67;;;14.80;76.00;;;;;;5068119;28;20441;-65
2022/07/18 03:07:39;;;;;;;5.60;4.60;;;14.80;75.00;;;;;;5052003;28;20439;-65
2022/07/18 03:10:08;;;;;;;6.40;5.50;;;14.80;75.40;;;;;;5054830;28;20519;-65
2022/07/18 03:12:35;;;;;;;4.20;3.80;;;14.80;75.90;;;;;;5072017;28;20497;-65
2022/07/18 03:15:02;;;;;;;6.10;5.50;;;14.80;76.10;;;;;;5069846;28;20479;-65
2022/07/18 03:17:34;;;;;;;5.20;4.70;;;14.90;76.50;;;;;;5051968;28;20927;-65
2022/07/18 03:20:03;;;;;;;7.13;5.50;;;14.90;76.30;;;;;;5053390;28;20903;-65
2022/07/18 03:22:33;;;;;;;5.73;5.07;;;14.90;75.70;;;;;;5071967;28;20435;-65
2022/07/18 03:25:00;;;;;;;5.47;4.40;;;14.90;75.60;;;;;;5070373;28;20440;-65
2022/07/18 03:27:27;;;;;;;8.37;5.00;;;14.80;75.10;;;;;;5051903;28;20931;-65
2022/07/18 03:29:57;;;;;;;5.60;4.30;;;14.80;75.20;;;;;;5053130;28;20867;-66
2022/07/18 03:32:26;;;;;;;5.30;4.80;;;14.70;74.20;;;;;;5051835;28;21011;-65
2022/07/18 03:34:54;;;;;;;5.50;4.60;;;14.60;73.90;;;;;;5058634;28;20816;-67
2022/07/18 03:37:22;;;;;;;6.13;5.53;;;14.60;74.20;;;;;;5071836;28;20440;-66
2022/07/18 03:39:52;;;;;;;5.93;4.90;;;14.50;74.90;;;;;;5067189;28;20470;-66
2022/07/18 03:42:19;;;;;;;7.20;5.40;;;14.40;75.70;;;;;;5055421;28;20449;-67
2022/07/18 03:44:46;;;;;;;5.67;4.97;;;14.30;76.00;;;;;;5056625;28;20923;-66
2022/07/18 03:47:14;;;;;;;5.17;4.67;;;14.30;76.40;;;;;;5055674;28;20517;-66
2022/07/18 03:49:41;;;;;;;6.07;5.47;;;14.30;76.80;;;;;;5064261;28;20429;-66
2022/07/18 03:52:11;;;;;;;6.93;5.70;;;14.20;77.70;;;;;;5055436;28;20989;-66
2022/07/18 03:54:40;;;;;;;5.53;4.93;;;14.20;78.00;;;;;;5066993;28;20604;-66
2022/07/18 03:57:10;;;;;;;6.53;5.00;;;14.20;78.20;;;;;;5074041;28;20961;-71
2022/07/18 03:59:37;;;;;;;7.33;5.57;;;14.20;77.60;;;;;;5055271;28;20448;-66
2022/07/18 04:02:04;;;;;;;10.10;5.93;;;14.20;78.20;;;;;;5070494;28;20435;-66
2022/07/18 04:04:36;;;;;;;5.90;4.53;;;14.20;78.80;;;;;;5075801;28;20468;-66
2022/07/18 04:07:03;;;;;;;6.40;5.60;;;14.20;79.00;;;;;;5059901;28;20847;-67
2022/07/18 04:09:31;;;;;;;9.13;5.17;;;14.30;79.00;;;;;;5075434;28;20436;-69
2022/07/18 04:12:00;;;;;;;6.47;5.17;;;14.40;78.90;;;;;;5061929;28;20558;-66
2022/07/18 04:14:29;;;;;;;6.20;5.23;;;14.40;78.40;;;;;;5055348;28;20492;-66
2022/07/18 04:16:58;;;;;;;5.33;4.80;;;14.40;78.40;;;;;;5067021;28;20468;-66
2022/07/18 04:19:25;;;;;;;5.63;4.77;;;14.30;78.50;;;;;;5056648;28;20784;-66
2022/07/18 04:21:52;;;;;;;5.80;5.20;;;14.30;78.60;;;;;;5066128;28;21305;-67
2022/07/18 04:24:20;;;;;;;6.40;4.77;;;14.40;79.20;;;;;;5075185;28;20436;-66
2022/07/18 04:26:49;;;;;;;5.90;5.20;;;14.40;79.70;;;;;;5070744;28;20451;-66
2022/07/18 04:29:17;;;;;;;5.97;4.80;;;14.40;79.80;;;;;;5072559;28;20468;-67
2022/07/18 04:31:47;;;;;;;6.30;5.70;;;14.30;80.10;;;;;;5072599;28;20432;-66
2022/07/18 04:34:15;;;;;;;7.33;5.83;;;14.30;80.30;;;;;;5073373;28;20488;-66
2022/07/18 04:36:42;;;;;;;6.13;5.37;;;14.30;80.70;;;;;;5072418;28;20444;-67
2022/07/18 04:39:12;;;;;;;5.53;5.03;;;14.40;80.80;;;;;;5072043;28;20958;-66
2022/07/18 04:41:40;;;;;;;9.27;6.50;;;14.50;80.70;;;;;;5067291;28;20498;-68
2022/07/18 04:44:08;;;;;;;7.43;6.40;;;14.50;81.90;;;;;;5067833;28;21117;-67
2022/07/18 04:46:36;;;;;;;12.00;10.00;;;14.50;82.40;;;;;;5069209;28;20494;-68
2022/07/18 04:49:04;;;;;;;10.10;8.60;;;14.50;82.40;;;;;;5067528;28;20482;-66
2022/07/18 04:51:33;;;;;;;7.13;6.43;;;14.60;82.10;;;;;;5070120;28;20440;-66
2022/07/18 04:54:00;;;;;;;6.47;5.63;;;14.70;82.20;;;;;;5072719;28;20490;-65
2022/07/18 04:56:27;;;;;;;9.13;6.20;;;14.80;82.10;;;;;;5071988;28;20541;-66
2022/07/18 04:58:54;;;;;;;5.87;5.27;;;15.00;81.90;;;;;;5072944;28;20436;-66
2022/07/18 05:01:21;;;;;;;6.20;5.40;;;15.10;81.70;;;;;;5072107;28;20436;-66
2022/07/18 05:03:50;;;;;;;12.90;8.10;;;15.20;82.20;;;;;;5067852;28;20456;-68
2022/07/18 05:06:17;;;;;;;7.63;5.70;;;15.30;81.00;;;;;;5069392;28;20449;-71
2022/07/18 05:08:44;;;;;;;6.67;5.53;;;15.40;80.60;;;;;;5072113;28;20840;-66
2022/07/18 05:11:13;;;;;;;7.90;5.30;;;15.50;80.10;;;;;;5071849;28;20432;-66
2022/07/18 05:13:40;;;;;;;5.27;4.77;;;15.60;80.10;;;;;;5071824;28;20483;-67
2022/07/18 05:16:08;;;;;;;6.70;5.93;;;15.80;80.00;;;;;;5071363;28;20443;-72
2022/07/18 05:18:35;;;;;;;7.20;5.43;;;15.80;79.40;;;;;;5059439;28;20535;-75
2022/07/18 05:21:04;;;;;;;5.40;4.90;;;16.00;79.70;;;;;;5067547;28;20451;-67
2022/07/18 05:23:34;;;;;;;5.97;4.90;;;16.10;79.60;;;;;;5067866;28;20497;-66
2022/07/18 05:26:02;;;;;;;6.27;4.87;;;16.20;79.50;;;;;;5069426;28;20440;-66
2022/07/18 05:28:34;;;;;;;7.17;4.80;;;16.30;79.50;;;;;;5068474;28;20524;-67
2022/07/18 05:31:02;;;;;;;5.00;4.50;;;16.40;78.40;;;;;;5068125;28;20436;-74
2022/07/18 05:33:31;;;;;;;6.40;5.17;;;16.50;78.50;;;;;;5062945;28;20832;-66
2022/07/18 05:35:58;;;;;;;6.53;5.10;;;16.60;77.40;;;;;;5066639;28;20448;-67
2022/07/18 05:38:27;;;;;;;6.17;4.90;;;16.60;78.30;;;;;;5071242;28;20922;-68
2022/07/18 05:40:54;;;;;;;9.47;5.97;;;16.70;79.10;;;;;;5063402;28;20440;-66
2022/07/18 05:43:22;;;;;;;8.77;7.10;;;16.80;79.10;;;;;;5068564;28;20436;-66
2022/07/18 05:45:49;;;;;;;7.43;6.63;;;16.90;78.70;;;;;;5067962;28;20801;-66
2022/07/18 05:48:16;;;;;;;10.93;7.37;;;17.00;78.10;;;;;;5071338;28;20926;-67
2022/07/18 05:50:44;;;;;;;8.17;6.03;;;17.10;77.90;;;;;;5066465;28;20447;-66
2022/07/18 05:53:11;;;;;;;6.90;5.40;;;17.20;78.20;;;;;;5071826;28;20490;-66
2022/07/18 05:55:40;;;;;;;8.03;5.80;;;17.40;78.40;;;;;;5071052;28;20533;-66
2022/07/18 05:58:07;;;;;;;10.00;6.73;;;17.50;78.60;;;;;;5071424;28;20440;-67
2022/07/18 06:00:40;;;;;;;6.43;5.83;;;17.60;77.20;;;;;;5070439;28;20458;-66
2022/07/18 06:03:09;;;;;;;6.03;4.93;;;17.70;77.30;;;;;;5070846;28;20467;-66
2022/07/18 06:05:37;;;;;;;6.80;5.43;;;17.70;76.00;;;;;;5070232;28;20467;-67
2022/07/18 06:08:05;;;;;;;6.07;3.93;;;17.90;76.30;;;;;;5068190;28;20440;-68
2022/07/18 06:10:37;;;;;;;6.97;4.40;;;18.00;76.60;;;;;;5070995;28;20444;-66
2022/07/18 06:13:06;;;;;;;6.70;5.07;;;18.10;77.10;;;;;;5071508;28;20442;-65
2022/07/18 06:15:38;;;;;;;7.10;5.07;;;18.30;76.90;;;;;;5070482;28;20596;-65
2022/07/18 06:18:10;;;;;;;5.03;4.53;;;18.40;76.20;;;;;;5070347;28;20490;-65
2022/07/18 06:20:38;;;;;;;5.60;4.20;;;18.50;76.60;;;;;;5069930;28;20463;-65
2022/07/18 06:23:05;;;;;;;5.80;4.47;;;18.60;76.80;;;;;;5066686;28;20463;-65
2022/07/18 06:25:33;;;;;;;6.87;4.83;;;18.70;75.70;;;;;;5067602;28;20444;-65
2022/07/18 06:28:07;;;;;;;6.30;4.97;;;18.80;73.50;;;;;;5068696;28;20927;-65
2022/07/18 06:30:40;;;;;;;5.23;4.30;;;18.80;71.80;;;;;;5070511;28;20511;-65
2022/07/18 06:33:13;;;;;;;5.53;4.83;;;18.90;72.30;;;;;;5070217;28;20464;-66
2022/07/18 06:35:43;;;;;;;7.63;4.50;;;19.00;71.90;;;;;;5072396;28;20490;-65
2022/07/18 06:38:10;;;;;;;5.17;4.57;;;19.00;71.90;;;;;;5072736;28;20917;-65
2022/07/18 06:40:37;;;;;;;6.23;3.80;;;19.10;72.20;;;;;;5072506;28;20440;-65
2022/07/18 06:43:04;;;;;;;5.60;4.57;;;19.30;72.00;;;;;;5072942;28;20539;-65
2022/07/18 06:45:33;;;;;;;6.17;4.17;;;19.30;70.10;;;;;;5073315;28;20522;-65
2022/07/18 06:48:01;;;;;;;5.33;4.10;;;19.40;69.40;;;;;;5073160;28;20523;-65
2022/07/18 06:50:28;;;;;;;5.73;4.10;;;19.50;66.40;;;;;;5072730;28;20466;-65
2022/07/18 06:52:55;;;;;;;4.67;3.50;;;19.60;65.30;;;;;;5072968;28;20468;-65
2022/07/18 06:55:22;;;;;;;4.93;3.53;;;19.70;65.90;;;;;;5072944;28;20483;-64
2022/07/18 06:57:49;;;;;;;4.13;3.73;;;19.80;67.10;;;;;;5072930;28;20435;-66
2022/07/18 07:00:16;;;;;;;4.60;4.10;;;20.00;67.70;;;;;;5072836;28;20467;-65
2022/07/18 07:02:47;;;;;;;4.80;4.40;;;20.10;69.10;;;;;;5072723;28;20475;-65
2022/07/18 07:05:19;;;;;;;6.60;4.20;;;20.30;68.10;;;;;;5072426;28;20583;-65
2022/07/18 07:07:46;;;;;;;7.00;4.27;;;20.40;68.40;;;;;;5072839;28;20455;-65
2022/07/18 07:10:13;;;;;;;4.90;3.40;;;20.60;69.20;;;;;;5072812;28;20475;-65
2022/07/18 07:12:41;;;;;;;4.80;4.17;;;20.80;70.10;;;;;;5072581;28;20524;-65
2022/07/18 07:15:09;;;;;;;4.60;3.80;;;20.90;66.90;;;;;;5074425;28;21070;-65
2022/07/18 07:17:37;;;;;;;5.90;3.97;;;21.00;67.90;;;;;;5076837;28;20435;-65
2022/07/18 07:20:07;;;;;;;13.33;4.27;;;21.20;68.10;;;;;;5076782;28;20493;-65
2022/07/18 07:22:42;;;;;;;3.97;3.43;;;21.30;67.70;;;;;;5077069;28;20498;-65
2022/07/18 07:25:13;;;;;;;4.73;3.73;;;21.50;67.00;;;;;;5076782;28;20530;-65
2022/07/18 07:27:40;;;;;;;3.73;2.97;;;21.60;65.80;;;;;;5076902;28;20482;-65
2022/07/18 07:30:08;;;;;;;10.73;3.57;;;21.70;65.30;;;;;;5076481;28;20463;-65
2022/07/18 07:32:36;;;;;;;5.37;3.77;;;21.80;64.90;;;;;;5076128;28;20534;-65
2022/07/18 07:35:06;;;;;;;6.30;3.40;;;22.00;65.80;;;;;;5076229;28;20991;-65
2022/07/18 07:37:33;;;;;;;5.77;4.03;;;22.10;65.60;;;;;;5076016;28;20480;-66
2022/07/18 07:40:02;;;;;;;5.83;3.40;;;22.30;65.50;;;;;;5076434;28;20500;-66
2022/07/18 07:42:29;;;;;;;4.73;4.10;;;22.40;64.80;;;;;;5076180;28;20774;-71
2022/07/18 07:44:58;;;;;;;6.50;3.60;;;22.50;64.00;;;;;;5076196;28;20966;-65
2022/07/18 07:47:25;;;;;;;7.20;3.67;;;22.60;61.90;;;;;;5076484;28;20452;-66
2022/07/18 07:49:52;;;;;;;6.40;3.70;;;22.70;63.20;;;;;;5076239;28;20453;-66
2022/07/18 07:52:21;;;;;;;7.90;4.23;;;22.90;61.40;;;;;;5076252;28;20448;-66
2022/07/18 07:54:48;;;;;;;6.07;3.83;;;23.00;62.50;;;;;;5075991;28;20509;-65
2022/07/18 07:57:18;;;;;;;3.93;3.47;;;23.10;61.20;;;;;;5075836;28;20475;-66
2022/07/18 07:59:51;;;;;;;11.30;4.00;;;23.20;61.40;;;;;;5075833;28;20442;-65
2022/07/18 08:02:18;;;;;;;6.10;3.53;;;23.40;61.00;;;;;;5075494;28;20467;-65
2022/07/18 08:04:51;;;;;;;7.37;3.80;;;23.50;61.00;;;;;;5075707;28;20478;-65
2022/07/18 08:07:24;;;;;;;6.20;3.57;;;23.60;60.00;;;;;;5076014;28;21263;-65
2022/07/18 08:09:56;;;;;;;8.33;4.00;;;23.80;61.40;;;;;;5076021;28;20453;-65
2022/07/18 08:12:27;;;;;;;5.30;3.43;;;23.90;60.10;;;;;;5074769;28;20432;-66
2022/07/18 08:14:59;;;;;;;5.87;3.47;;;24.00;59.30;;;;;;5075604;28;20527;-66
2022/07/18 08:17:26;;;;;;;4.53;3.23;;;24.20;58.00;;;;;;5071930;28;20767;-65
2022/07/18 08:19:53;;;;;;;4.27;3.37;;;24.20;57.20;;;;;;5074041;28;20470;-66
2022/07/18 08:22:28;;;;;;;6.20;4.00;;;24.40;57.30;;;;;;5074440;28;20435;-66
2022/07/18 08:24:55;;;;;;;7.10;3.50;;;24.50;55.50;;;;;;5071328;28;20443;-66
2022/07/18 08:27:22;;;;;;;9.60;3.53;;;24.60;55.90;;;;;;5074330;28;20918;-66
2022/07/18 08:29:51;;;;;;;4.60;3.17;;;24.70;54.50;;;;;;5074249;28;20513;-66
2022/07/18 08:32:19;;;;;;;6.03;3.10;;;24.80;53.70;;;;;;5073998;28;20534;-65
2022/07/18 08:34:52;;;;;;;4.33;2.63;;;24.90;54.50;;;;;;5074167;28;20554;-65
2022/07/18 08:37:20;;;;;;;3.33;2.43;;;25.10;51.20;;;;;;5074341;28;20509;-65
2022/07/18 08:39:48;;;;;;;7.20;2.80;;;25.20;48.30;;;;;;5073767;28;20452;-65
2022/07/18 08:42:19;;;;;;;5.20;1.80;;;25.30;46.70;;;;;;5073207;28;20444;-65
2022/07/18 08:44:47;;;;;;;4.87;2.20;;;25.40;45.90;;;;;;5074024;28;20440;-65
2022/07/18 08:47:17;;;;;;;4.80;2.00;;;25.60;45.90;;;;;;5073911;28;20432;-65
2022/07/18 08:49:45;;;;;;;2.93;2.17;;;25.70;43.80;;;;;;5073670;28;20472;-65
2022/07/18 08:52:17;;;;;;;3.53;2.40;;;25.80;41.60;;;;;;5073955;28;20471;-66
2022/07/18 08:54:50;;;;;;;5.93;2.60;;;25.90;41.80;;;;;;5073820;28;20486;-66
2022/07/18 08:57:17;;;;;;;3.53;2.00;;;26.10;43.20;;;;;;5073884;28;20436;-66
2022/07/18 08:59:45;;;;;;;3.60;1.87;;;26.20;42.80;;;;;;5073379;28;20468;-66
2022/07/18 09:02:12;;;;;;;3.67;1.80;;;26.30;39.80;;;;;;5073355;28;20863;-66
2022/07/18 09:04:43;;;;;;;2.97;1.70;;;26.40;40.00;;;;;;5073608;28;20846;-66
2022/07/18 09:07:24;;;;;;;2.80;1.67;;;26.50;38.40;;;;;;5073598;28;20480;-66
2022/07/18 09:09:57;;;;;;;2.97;2.10;;;26.70;35.20;;;;;;5073596;28;20993;-66
2022/07/18 09:12:24;;;;;;;2.77;1.50;;;26.80;35.30;;;;;;5073222;28;20531;-65
2022/07/18 09:14:51;;;;;;;4.80;1.87;;;26.90;35.90;;;;;;5073550;28;20946;-66
2022/07/18 09:17:25;;;;;;;4.00;1.80;;;27.00;37.60;;;;;;5073494;28;20480;-66
2022/07/18 09:20:05;;;;;;;2.90;1.80;;;27.10;37.20;;;;;;5073097;28;20472;-66
2022/07/18 09:22:34;;;;;;;2.20;1.30;;;27.20;35.80;;;;;;5071517;28;20450;-66
2022/07/18 09:25:07;;;;;;;3.10;1.70;;;27.30;36.90;;;;;;5073369;28;20873;-66
2022/07/18 09:27:39;;;;;;;2.30;1.33;;;27.40;33.60;;;;;;5071245;28;20531;-66
2022/07/18 09:30:22;;;;;;;2.67;1.60;;;27.50;34.00;;;;;;5072604;28;20475;-66
2022/07/18 09:32:52;;;;;;;3.50;1.60;;;27.60;33.10;;;;;;5073184;28;20436;-68
2022/07/18 09:35:27;;;;;;;2.73;1.73;;;27.70;33.10;;;;;;5072932;28;20483;-65
2022/07/18 09:38:01;;;;;;;3.60;1.47;;;27.80;34.30;;;;;;5071711;28;20443;-65
2022/07/18 09:40:31;;;;;;;3.70;1.80;;;27.90;34.10;;;;;;5072687;28;20467;-65
2022/07/18 09:43:00;;;;;;;3.47;1.40;;;27.90;34.00;;;;;;5073076;28;20779;-65
2022/07/18 09:45:32;;;;;;;4.00;1.40;;;28.00;31.30;;;;;;5072695;28;20468;-65
2022/07/18 09:48:06;;;;;;;3.87;1.53;;;28.10;32.30;;;;;;5072589;28;20471;-66
2022/07/18 09:50:35;;;;;;;2.50;1.50;;;28.20;32.70;;;;;;5072347;28;20456;-66
2022/07/18 09:53:13;;;;;;;2.93;1.40;;;28.30;31.80;;;;;;5072576;28;20440;-65
2022/07/18 09:55:47;;;;;;;2.83;1.30;;;28.40;32.00;;;;;;5071766;28;20514;-66
2022/07/18 09:58:20;;;;;;;5.73;1.87;;;28.40;31.30;;;;;;5071737;28;20497;-65
2022/07/18 10:00:48;;;;;;;7.23;1.40;;;28.50;29.30;;;;;;5072606;28;20521;-65
2022/07/18 10:03:20;;;;;;;3.80;1.90;;;28.60;30.90;;;;;;5072094;28;20471;-65
2022/07/18 10:05:55;;;;;;;2.73;1.60;;;28.70;30.00;;;;;;5072716;28;20475;-65
2022/07/18 10:08:24;;;;;;;4.23;1.57;;;28.80;29.80;;;;;;5072006;28;20475;-65
2022/07/18 10:10:56;;;;;;;4.00;1.60;;;28.80;30.20;;;;;;5072616;28;20436;-65
2022/07/18 10:13:24;;;;;;;2.57;1.37;;;28.90;30.90;;;;;;5072004;28;20444;-65
2022/07/18 10:15:56;;;;;;;2.53;1.50;;;29.00;28.70;;;;;;5072130;28;20513;-66
2022/07/18 10:18:25;;;;;;;2.50;1.40;;;29.10;30.00;;;;;;5071899;28;20467;-65
2022/07/18 10:20:55;;;;;;;2.50;1.60;;;29.10;29.20;;;;;;5072232;28;20460;-65
2022/07/18 10:23:26;;;;;;;3.10;2.10;;;29.30;31.40;;;;;;5072360;28;20459;-65
2022/07/18 10:26:17;;;;;;;3.50;1.90;;;29.40;29.60;;;;;;5073317;28;20523;-65
2022/07/18 10:29:26;;;;;;;3.00;1.90;;;29.50;30.10;;;;;;5069019;28;20798;-65
2022/07/18 10:32:04;;;;;;;2.50;1.67;;;29.50;29.70;;;;;;5062045;28;20476;-65
2022/07/18 10:34:34;;;;;;;3.33;1.83;;;29.50;29.20;;;;;;5072904;28;20497;-65
2022/07/18 10:37:11;;;;;;;2.93;1.70;;;29.60;30.90;;;;;;5072771;28;20484;-65
2022/07/18 10:39:44;;;;;;;4.53;1.77;;;29.60;29.00;;;;;;5073091;28;20497;-65
2022/07/18 10:42:24;;;;;;;3.20;1.83;;;29.70;28.00;;;;;;5073172;28;20489;-65
2022/07/18 10:44:52;;;;;;;2.77;1.70;;;29.70;29.30;;;;;;5073309;28;20483;-65
2022/07/18 10:47:23;;;;;;;2.70;1.73;;;29.70;29.90;;;;;;5072969;28;20529;-65
2022/07/18 10:50:09;;;;;;;3.03;1.40;;;29.70;28.80;;;;;;5072672;28;20480;-68
2022/07/18 10:52:58;;;;;;;4.73;1.40;;;29.80;29.60;;;;;;5073171;28;20475;-65
2022/07/18 10:55:32;;;;;;;2.37;1.40;;;29.90;29.50;;;;;;5073079;28;20899;-65
2022/07/18 10:58:24;;;;;;;3.33;1.70;;;30.00;29.50;;;;;;5073130;28;20436;-65
2022/07/18 11:01:01;;;;;;;3.37;1.80;;;30.10;30.00;;;;;;5072503;28;20441;-65
2022/07/18 11:03:29;;;;;;;2.70;1.43;;;30.20;30.00;;;;;;5072529;28;20463;-65
2022/07/18 11:05:57;;;;;;;2.83;1.57;;;30.20;28.80;;;;;;5073093;28;20780;-65
2022/07/18 11:08:28;;;;;;;2.77;1.60;;;30.30;28.50;;;;;;5073058;28;20479;-65
2022/07/18 11:11:12;;;;;;;2.60;1.40;;;30.40;28.00;;;;;;5072491;28;20532;-66
2022/07/18 11:13:43;;;;;;;2.70;1.80;;;30.40;29.60;;;;;;5073030;28;20439;-66
2022/07/18 11:16:12;;;;;;;2.30;1.30;;;30.50;28.50;;;;;;5072877;28;20483;-65
2022/07/18 11:19:17;;;;;;;2.70;1.60;;;30.50;27.10;;;;;;5071634;28;20435;-66
2022/07/18 11:21:47;;;;;;;2.63;1.67;;;30.40;28.40;;;;;;5052893;28;20527;-66
2022/07/18 11:24:15;;;;;;;4.17;1.90;;;30.50;26.90;;;;;;5053728;28;20444;-65
2022/07/18 11:26:47;;;;;;;3.87;1.70;;;30.50;27.30;;;;;;5053980;28;20433;-66
2022/07/18 11:29:20;;;;;;;7.83;1.40;;;30.50;26.60;;;;;;5056008;28;20448;-65
2022/07/18 11:31:49;;;;;;;3.00;1.63;;;30.50;26.80;;;;;;5072593;28;20805;-66
2022/07/18 11:34:16;;;;;;;2.93;1.20;;;30.50;27.60;;;;;;5072646;28;20531;-65
2022/07/18 11:36:46;;;;;;;3.00;1.70;;;30.50;26.80;;;;;;5053976;28;20534;-66
2022/07/18 11:39:28;;;;;;;4.23;1.70;;;30.60;27.50;;;;;;5052643;28;20441;-66
2022/07/18 11:42:01;;;;;;;3.43;1.83;;;30.60;27.20;;;;;;5052437;28;20440;-65
2022/07/18 11:44:30;;;;;;;2.60;1.50;;;30.60;27.60;;;;;;5056231;28;20440;-65
2022/07/18 11:47:08;;;;;;;3.50;1.50;;;30.70;27.50;;;;;;5072432;28;20809;-65
2022/07/18 11:49:54;;;;;;;2.37;1.30;;;30.70;26.50;;;;;;5068650;28;20458;-66
2022/07/18 11:52:26;;;;;;;2.20;1.40;;;30.60;26.80;;;;;;5071955;28;20475;-65
2022/07/18 11:54:54;;;;;;;2.23;1.20;;;30.60;27.00;;;;;;5072397;28;20479;-65
2022/07/18 11:57:28;;;;;;;2.63;1.47;;;30.60;26.60;;;;;;5072217;28;20487;-65
2022/07/18 11:59:56;;;;;;;3.23;2.00;;;30.70;28.00;;;;;;5072665;28;20791;-65
2022/07/18 12:02:26;;;;;;;2.50;1.27;;;30.70;27.10;;;;;;5075772;28;20521;-65
2022/07/18 12:04:58;;;;;;;4.53;1.30;;;30.80;26.80;;;;;;5075645;28;20980;-67
2022/07/18 12:07:30;;;;;;;2.60;1.30;;;30.90;28.50;;;;;;5075673;28;20487;-65
2022/07/18 12:10:17;;;;;;;4.30;1.63;;;30.90;28.70;;;;;;5072309;28;20435;-68
2022/07/18 12:12:45;;;;;;;3.57;1.30;;;31.00;26.30;;;;;;5075176;28;20840;-66
2022/07/18 12:15:18;;;;;;;2.80;1.23;;;31.00;27.30;;;;;;5074223;28;20482;-65
2022/07/18 12:17:47;;;;;;;2.30;1.10;;;31.00;26.40;;;;;;5073701;28;20549;-66
2022/07/18 12:20:22;;;;;;;2.60;1.40;;;31.00;26.30;;;;;;5074411;28;21016;-66
2022/07/18 12:23:11;;;;;;;2.93;1.47;;;31.10;26.80;;;;;;5074798;28;20443;-66
2022/07/18 12:25:57;;;;;;;3.40;1.67;;;31.10;26.30;;;;;;5074963;28;20841;-66
2022/07/18 12:28:26;;;;;;;4.20;1.57;;;31.10;25.20;;;;;;5074748;28;20869;-66
2022/07/18 12:30:55;;;;;;;3.90;1.30;;;31.10;25.30;;;;;;5074391;28;20460;-66
2022/07/18 12:33:23;;;;;;;3.47;1.90;;;31.10;26.00;;;;;;5075298;28;20475;-65
2022/07/18 12:35:57;;;;;;;3.23;2.17;;;31.20;26.10;;;;;;5075121;28;20444;-65
2022/07/18 12:38:24;;;;;;;2.20;1.30;;;31.20;27.10;;;;;;5074924;28;20433;-65
2022/07/18 12:41:03;;;;;;;2.67;1.40;;;31.30;27.20;;;;;;5075179;28;20436;-65
2022/07/18 12:43:33;;;;;;;2.20;1.23;;;31.30;28.50;;;;;;5075137;28;21009;-66
2022/07/18 12:46:03;;;;;;;2.30;1.30;;;31.40;26.60;;;;;;5075114;28;20479;-66
2022/07/18 12:48:38;;;;;;;2.80;1.30;;;31.40;25.10;;;;;;5074744;28;20474;-66
2022/07/18 12:51:07;;;;;;;3.33;2.10;;;31.30;25.00;;;;;;5075204;28;20439;-65
2022/07/18 12:53:42;;;;;;;2.20;1.50;;;31.20;25.30;;;;;;5074878;28;21014;-65
2022/07/18 12:56:09;;;;;;;2.60;1.30;;;31.20;26.50;;;;;;5074440;28;20474;-66
2022/07/18 12:58:36;;;;;;;2.80;1.37;;;31.20;26.80;;;;;;5074906;28;20510;-66
2022/07/18 13:01:07;;;;;;;2.73;1.53;;;31.30;27.30;;;;;;5074344;28;20973;-65
2022/07/18 13:03:34;;;;;;;2.83;1.60;;;31.30;27.10;;;;;;5074348;28;20521;-65